createdAt,value
2023-02-06T00:00:15.275Z,72.32
2023-02-06T00:05:16.843Z,69.80
2023-02-06T00:10:18.404Z,69.80
2023-02-06T00:15:20.009Z,67.90
2023-02-06T00:20:21.544Z,74.13
2023-02-06T00:25:22.972Z,73.28
2023-02-06T00:30:24.401Z,77.80
2023-02-06T00:35:26.067Z,84.63
2023-02-06T00:40:27.722Z,77.50
2023-02-06T00:45:29.220Z,76.35
2023-02-06T00:50:31.111Z,76.00
2023-02-06T00:55:32.612Z,72.28
2023-02-06T01:00:34.987Z,71.70
2023-02-06T01:05:36.889Z,71.95
2023-02-06T01:10:43.850Z,73.03
2023-02-06T01:15:45.296Z,76.85
2023-02-06T01:20:46.754Z,79.72
2023-02-06T01:25:48.172Z,81.30
2023-02-06T01:30:49.623Z,76.10
2023-02-06T01:35:57.033Z,80.68
2023-02-06T01:41:00.154Z,81.03
2023-02-06T01:46:01.645Z,82.38
2023-02-06T01:51:07.083Z,93.93
2023-02-06T01:56:09.931Z,88.55
2023-02-06T02:01:11.560Z,84.60
2023-02-06T02:06:18.183Z,89.30
2023-02-06T02:11:27.095Z,77.82
2023-02-06T02:16:52.408Z,80.78
2023-02-06T02:22:19.163Z,81.38
2023-02-06T02:27:59.683Z,74.22
2023-02-06T02:33:28.902Z,71.07
2023-02-06T02:38:51.944Z,74.53
2023-02-06T02:44:02.083Z,75.53
2023-02-06T02:49:09.138Z,67.18
2023-02-06T02:54:10.888Z,68.60
2023-02-06T02:59:12.273Z,61.38
2023-02-06T03:04:23.105Z,67.60
2023-02-06T03:09:53.712Z,66.13
2023-02-06T03:15:00.787Z,64.60
2023-02-06T03:20:05.043Z,71.47
2023-02-06T03:25:14.261Z,72.72
2023-02-06T03:30:16.565Z,71.53
2023-02-06T03:35:26.702Z,64.50
2023-02-06T03:40:29.312Z,62.10
2023-02-06T03:45:34.385Z,71.30
2023-02-06T03:50:39.667Z,64.72
2023-02-06T03:55:43.161Z,95.22
2023-02-06T04:00:46.387Z,105.57
2023-02-06T04:05:47.888Z,107.70
2023-02-06T04:10:49.563Z,71.22
2023-02-06T04:15:51.363Z,64.38
2023-02-06T04:20:53.026Z,57.08
2023-02-06T04:25:54.592Z,59.47
2023-02-06T04:30:56.150Z,57.67
2023-02-06T04:35:57.611Z,51.90
2023-02-06T04:41:06.332Z,60.70
2023-02-06T04:46:08.095Z,65.17
2023-02-06T04:51:09.880Z,72.60
2023-02-06T04:56:12.547Z,62.80
2023-02-06T05:01:16.775Z,61.88
2023-02-06T05:06:18.344Z,66.40
2023-02-06T05:11:19.752Z,73.78
2023-02-06T05:16:21.228Z,74.05
2023-02-06T05:21:24.300Z,75.75
2023-02-06T05:26:25.744Z,73.13
2023-02-06T05:31:27.259Z,74.65
2023-02-06T05:36:29.209Z,79.28
2023-02-06T05:41:30.614Z,77.22
2023-02-06T05:46:32.166Z,85.60
2023-02-06T05:51:33.814Z,82.95
2023-02-06T05:56:35.235Z,81.88
2023-02-06T06:01:36.903Z,87.70
2023-02-06T06:06:38.321Z,93.00
2023-02-06T06:11:39.800Z,89.88
2023-02-06T06:16:41.880Z,95.13
2023-02-06T06:21:43.344Z,93.93
2023-02-06T06:26:44.773Z,86.22
2023-02-06T06:31:46.353Z,86.25
2023-02-06T06:36:47.862Z,82.18
2023-02-06T06:41:49.341Z,84.38
2023-02-06T06:46:50.775Z,91.18
2023-02-06T06:51:52.216Z,94.90
2023-02-06T06:56:53.968Z,101.45
2023-02-06T07:01:55.385Z,90.75
2023-02-06T07:06:56.834Z,93.18
2023-02-06T07:11:58.252Z,90.80
2023-02-06T07:17:01.590Z,87.15
2023-02-06T07:22:03.014Z,88.13
2023-02-06T07:27:04.435Z,79.20
2023-02-06T07:32:06.868Z,91.55
2023-02-06T07:37:08.321Z,91.38
2023-02-06T07:42:09.729Z,92.68
2023-02-06T07:47:11.348Z,98.18
2023-02-06T07:52:12.819Z,92.75
2023-02-06T07:57:14.259Z,89.93
2023-02-06T08:02:15.694Z,89.10
2023-02-06T08:07:17.836Z,94.57
2023-02-06T08:12:19.316Z,88.35
2023-02-06T08:17:21.288Z,76.93
2023-02-06T08:22:22.724Z,84.45
2023-02-06T08:27:24.176Z,84.18
2023-02-06T08:32:26.521Z,85.93
2023-02-06T08:37:28.239Z,91.68
2023-02-06T08:42:29.673Z,80.28
2023-02-06T08:47:31.173Z,79.75
2023-02-06T08:52:32.618Z,76.70
2023-02-06T08:57:34.260Z,80.75
2023-02-06T09:02:35.967Z,71.93
2023-02-06T09:07:37.507Z,72.88
2023-02-06T09:12:38.961Z,78.63
2023-02-06T09:17:40.377Z,74.68
2023-02-06T09:22:44.514Z,64.32
2023-02-06T09:27:47.280Z,64.45
2023-02-06T09:32:48.808Z,61.50
2023-02-06T09:37:50.273Z,68.18
2023-02-06T09:42:53.466Z,61.50
2023-02-06T09:48:20.694Z,59.28
2023-02-06T09:53:35.836Z,47.47
2023-02-06T09:59:05.767Z,52.10
2023-02-06T10:04:25.529Z,50.85
2023-02-06T10:09:42.467Z,20.77
2023-02-06T10:14:49.064Z,28.38
2023-02-06T10:20:28.890Z,40.60
2023-02-06T10:25:34.733Z,17.55
2023-02-06T10:31:02.222Z,8.77
2023-02-06T10:36:26.916Z,11.00
2023-02-06T10:42:05.473Z,17.77
2023-02-06T10:47:21.553Z,16.83
2023-02-06T10:52:33.431Z,20.00
2023-02-06T10:57:34.902Z,24.50
2023-02-06T11:02:44.332Z,21.27
2023-02-06T11:07:50.003Z,25.17
2023-02-06T11:13:23.181Z,20.52
2023-02-06T11:18:29.654Z,20.38
2023-02-06T11:23:31.908Z,24.80
2023-02-06T11:28:35.451Z,28.30
2023-02-06T11:33:36.854Z,24.50
2023-02-06T11:38:38.299Z,21.75
2023-02-06T11:43:42.561Z,21.55
2023-02-06T11:48:47.373Z,24.15
2023-02-06T11:53:59.667Z,23.90
2023-02-06T11:59:19.114Z,17.05
2023-02-06T12:04:27.808Z,18.63
2023-02-06T12:09:29.422Z,19.53
2023-02-06T12:14:45.408Z,20.60
2023-02-06T12:19:58.607Z,21.35
2023-02-06T12:25:03.238Z,17.85
2023-02-06T12:30:29.260Z,16.73
2023-02-06T12:35:43.629Z,11.20
2023-02-06T12:41:11.277Z,19.30
2023-02-06T12:46:19.531Z,15.85
2023-02-06T12:52:06.042Z,20.75
2023-02-06T12:57:17.411Z,18.77
2023-02-06T13:02:46.025Z,20.95
2023-02-06T13:07:50.044Z,18.10
2023-02-06T13:12:59.368Z,19.05
2023-02-06T13:18:00.844Z,20.88
2023-02-06T13:23:14.504Z,17.55
2023-02-06T13:28:21.945Z,20.10
2023-02-06T13:33:25.079Z,20.30
2023-02-06T13:38:34.024Z,19.48
2023-02-06T13:43:36.568Z,14.85
2023-02-06T13:49:32.055Z,19.83
2023-02-06T13:54:42.470Z,19.60
2023-02-06T14:00:02.145Z,15.38
2023-02-06T14:05:06.701Z,16.20
2023-02-06T14:10:56.649Z,17.08
2023-02-06T14:16:32.361Z,19.02
2023-02-06T14:21:56.727Z,17.08
2023-02-06T14:27:13.325Z,21.52
2023-02-06T14:32:31.088Z,20.90
2023-02-06T14:37:54.409Z,22.13
2023-02-06T14:42:58.250Z,20.23
2023-02-06T14:48:01.912Z,19.20
2023-02-06T14:53:18.924Z,18.27
2023-02-06T14:58:29.142Z,20.15
2023-02-06T15:03:30.677Z,20.65
2023-02-06T15:08:33.539Z,20.17
2023-02-06T15:13:35.445Z,23.20
2023-02-06T15:18:37.003Z,21.35
2023-02-06T15:23:47.592Z,26.45
2023-02-06T15:28:59.117Z,25.42
2023-02-06T15:34:01.328Z,24.65
2023-02-06T15:39:06.354Z,31.13
2023-02-06T15:44:35.964Z,56.85
2023-02-06T15:54:45.018Z,47.88
2023-02-06T15:59:46.697Z,47.13
2023-02-06T16:04:51.664Z,51.10
2023-02-06T16:10:06.658Z,50.63
2023-02-06T16:15:30.090Z,49.28
2023-02-06T16:20:34.388Z,60.95
2023-02-06T16:25:35.889Z,52.70
2023-02-06T16:30:37.714Z,45.03
2023-02-06T16:35:39.352Z,45.38
2023-02-06T16:40:40.924Z,41.40
2023-02-06T16:45:42.405Z,27.45
2023-02-06T16:50:46.929Z,26.55
2023-02-06T16:55:49.606Z,29.48
2023-02-06T17:00:51.672Z,29.48
2023-02-06T17:05:54.594Z,52.17
2023-02-06T17:10:56.160Z,73.32
2023-02-06T17:15:57.680Z,72.40
2023-02-06T17:20:59.135Z,52.53
2023-02-06T17:26:00.637Z,63.67
2023-02-06T17:31:02.338Z,82.15
2023-02-06T17:36:07.838Z,80.55
2023-02-06T17:41:09.398Z,78.72
2023-02-06T17:46:11.620Z,68.32
2023-02-06T17:51:13.210Z,56.83
2023-02-06T17:56:14.853Z,56.83
2023-02-06T18:01:22.980Z,53.55
2023-02-06T18:06:24.757Z,54.97
2023-02-06T18:11:26.179Z,50.63
2023-02-06T18:16:28.826Z,57.33
2023-02-06T18:21:31.465Z,55.55
2023-02-06T18:26:33.326Z,69.82
2023-02-06T18:31:36.400Z,59.67
2023-02-06T18:36:37.994Z,70.97
2023-02-06T18:41:58.291Z,74.95
2023-02-06T18:46:59.700Z,81.75
2023-02-06T18:52:01.638Z,72.43
2023-02-06T18:57:03.520Z,72.15
2023-02-06T19:02:05.163Z,67.05
2023-02-06T19:07:06.772Z,69.80
2023-02-06T19:12:08.384Z,74.10
2023-02-06T19:17:09.807Z,79.32
2023-02-06T19:22:11.274Z,65.90
2023-02-06T19:27:13.879Z,68.75
2023-02-06T19:32:15.378Z,63.15
2023-02-06T19:37:16.832Z,61.88
2023-02-06T19:42:18.839Z,61.08
2023-02-06T19:47:20.814Z,63.30
2023-02-06T19:52:22.432Z,58.70
2023-02-06T19:57:23.855Z,58.25
2023-02-06T20:02:25.317Z,61.70
2023-02-06T20:07:27.053Z,67.35
2023-02-06T20:12:28.554Z,75.18
2023-02-06T20:17:30.316Z,74.18
2023-02-06T20:22:32.159Z,72.60
2023-02-06T20:27:33.620Z,72.25
2023-02-06T20:32:35.147Z,62.97
2023-02-06T20:37:36.583Z,73.43
2023-02-06T20:42:42.125Z,62.42
2023-02-06T20:47:43.638Z,72.18
2023-02-06T20:52:45.099Z,74.97
2023-02-06T20:57:46.546Z,71.75
2023-02-06T21:02:48.867Z,63.13
2023-02-06T21:07:50.451Z,70.50
2023-02-06T21:12:51.865Z,70.55
2023-02-06T21:17:53.394Z,70.57
2023-02-06T21:22:55.138Z,74.30
2023-02-06T21:27:56.613Z,74.82
2023-02-06T21:32:58.054Z,71.55
2023-02-06T21:37:59.990Z,71.22
2023-02-06T21:43:01.436Z,75.00
2023-02-06T21:48:02.910Z,83.57
2023-02-06T21:53:04.446Z,81.50
2023-02-06T21:58:05.920Z,79.50
2023-02-06T22:03:07.357Z,85.60
2023-02-06T22:08:08.835Z,82.90
2023-02-06T22:13:10.266Z,102.95
2023-02-06T22:18:11.672Z,143.05
2023-02-06T22:23:13.086Z,163.88
2023-02-06T22:28:14.608Z,128.30
2023-02-06T22:33:16.144Z,130.98
2023-02-06T22:38:17.560Z,118.53
2023-02-06T22:43:18.972Z,124.63
2023-02-06T22:48:20.390Z,166.95
2023-02-06T22:53:29.302Z,163.43
2023-02-06T22:58:30.730Z,135.43
2023-02-06T23:03:32.177Z,103.82
2023-02-06T23:08:35.105Z,109.53
2023-02-06T23:13:37.126Z,114.47
2023-02-06T23:18:38.573Z,116.80
2023-02-06T23:23:41.328Z,110.28
2023-02-06T23:28:42.845Z,107.68
2023-02-06T23:33:44.526Z,111.25
2023-02-06T23:38:47.861Z,113.57
2023-02-06T23:43:51.757Z,108.70
2023-02-06T23:48:53.890Z,119.40
2023-02-06T23:53:55.383Z,115.57
2023-02-06T23:58:59.063Z,110.85
